.
WxDataArchive / Data Records for 2006-04-19
2006-04-18 April 2006 2006-04-20

Data Records for Wednesday, 19 April 2006

Time	Temp	Chill	HIndex	Humid	Dewpt	 Wind 	HiWind	WindDir	Rain 	Barom 
-----	----	-----	------	-----	-----	------	------	-------	-----	----- 
00:00	50.1	50.1	50.1	62	37.6	3	7	90	0.00	29.908 
00:05	49.9	49.9	49.9	63	37.8	2	4	90	0.00	29.908 
00:10	49.8	49.8	49.8	63	37.7	2	5	90	0.00	29.908 
00:15	49.6	49.6	49.6	64	37.9	2	5	90	0.00	29.903 
00:20	49.5	49.5	49.5	64	37.8	3	5	90	0.00	29.903 
00:25	49.4	49.4	49.4	65	38.1	2	4	112	0.00	29.903 
00:30	49.1	49.1	49.1	66	38.2	2	5	90	0.00	29.911 
00:35	48.9	48.9	48.9	66	38.0	2	4	112	0.00	29.911 
00:40	48.8	48.8	48.8	66	38.0	2	4	90	0.00	29.911 
00:45	48.8	48.8	48.8	66	38.0	2	4	90	0.00	29.924 
00:50	48.6	48.6	48.6	67	38.1	2	4	90	0.00	29.924 
00:55	48.5	48.5	48.5	67	38.0	2	4	90	0.00	29.924 
01:00	48.5	48.5	48.5	67	38.0	2	5	90	0.00	29.925 
01:05	48.5	48.5	48.5	67	38.0	3	5	90	0.00	29.925 
01:10	48.5	48.5	48.5	68	38.4	2	5	90	0.00	29.925 
01:15	48.3	48.3	48.3	68	38.2	2	6	112	0.00	29.924 
01:20	48.3	48.3	48.3	68	38.2	3	5	112	0.00	29.924 
01:25	48.2	48.2	48.2	69	38.5	2	7	90	0.00	29.924 
01:30	48.0	48.0	48.0	69	38.3	3	6	90	0.00	29.914 
01:35	48.0	48.0	48.0	69	38.3	2	6	112	0.00	29.914 
01:40	47.9	47.9	47.9	69	38.2	1	4	112	0.00	29.914 
01:45	47.7	47.7	47.7	69	38.0	2	6	112	0.00	29.920 
01:50	47.6	47.6	47.6	70	38.3	2	5	90	0.00	29.920 
01:55	47.6	47.6	47.6	70	38.3	2	4	112	0.00	29.920 
02:00	47.3	47.3	47.3	70	38.0	2	3	90	0.00	29.909 
02:05	47.3	47.3	47.3	71	38.4	3	5	112	0.00	29.909 
02:10	47.1	47.1	47.1	71	38.2	2	7	112	0.00	29.909 
02:15	47.0	47.0	47.0	72	38.4	1	3	90	0.00	29.892 
02:20	46.8	46.8	46.8	73	38.6	2	4	112	0.00	29.892 
02:25	46.5	46.5	46.5	73	38.3	1	4	112	0.00	29.892 
02:30	46.4	46.4	46.4	73	38.2	1	3	90	0.00	29.889 
02:35	46.4	46.4	46.4	73	38.2	2	4	90	0.00	29.889 
02:40	46.2	46.2	46.2	74	38.4	1	4	112	0.00	29.889 
02:45	46.2	46.2	46.2	74	38.4	2	5	90	0.00	29.884 
02:50	46.2	46.2	46.2	75	38.7	2	5	112	0.00	29.884 
02:55	46.2	46.2	46.2	75	38.7	2	5	112	0.00	29.884 
03:00	46.4	46.4	46.4	74	38.6	2	5	112	0.00	29.876 
03:05	46.4	46.4	46.4	75	38.9	2	4	90	0.00	29.876 
03:10	46.2	46.2	46.2	75	38.7	1	5	90	0.00	29.876 
03:15	46.1	46.1	46.1	75	38.6	2	4	90	0.00	29.876 
03:20	46.1	46.1	46.1	75	38.6	1	4	90	0.00	29.876 
03:25	46.1	46.1	46.1	76	39.0	2	5	90	0.00	29.876 
03:30	46.0	46.0	46.0	76	38.9	1	4	112	0.00	29.886 
03:35	46.0	46.0	46.0	76	38.9	1	3	112	0.00	29.886 
03:40	45.8	45.8	45.8	76	38.7	0	2	112	0.00	29.886 
03:45	45.7	45.7	45.7	77	38.9	1	3	112	0.00	29.899 
03:50	45.7	45.7	45.7	77	38.9	0	2	112	0.00	29.899 
03:55	45.7	45.7	45.7	77	38.9	0	1	112	0.00	29.899 
04:00	45.7	45.7	45.7	77	38.9	1	2	112	0.00	29.908 
04:05	45.7	45.7	45.7	77	38.9	1	3	112	0.00	29.908 
04:10	46.0	46.0	46.0	77	39.2	2	5	112	0.00	29.908 
04:15	46.4	46.4	46.4	76	39.3	2	4	90	0.00	29.909 
04:20	46.7	46.7	46.7	76	39.5	3	6	90	0.00	29.909 
04:25	46.8	46.8	46.8	76	39.6	3	6	90	0.00	29.909 
04:30	46.8	46.8	46.8	76	39.6	2	4	90	0.00	29.908 
04:35	46.7	46.7	46.7	77	39.9	2	4	90	0.00	29.908 
04:40	46.5	46.5	46.5	77	39.7	2	4	90	0.00	29.908 
04:45	46.4	46.4	46.4	77	39.6	2	4	90	0.00	29.898 
04:50	46.1	46.1	46.1	78	39.6	1	4	112	0.00	29.898 
04:55	46.0	46.0	46.0	79	39.9	1	3	112	0.00	29.898 
05:00	45.8	45.8	45.8	79	39.7	1	4	112	0.00	29.892 
05:05	45.7	45.7	45.7	79	39.6	2	4	112	0.00	29.892 
05:10	45.7	45.7	45.7	79	39.6	2	4	90	0.00	29.892 
05:15	45.7	45.7	45.7	79	39.6	1	3	112	0.00	29.892 
05:20	45.7	45.7	45.7	79	39.6	2	5	112	0.00	29.892 
05:25	45.7	45.7	45.7	80	39.9	2	4	90	0.00	29.892 
05:30	45.8	45.8	45.8	80	40.0	2	4	90	0.00	29.891 
05:35	45.8	45.8	45.8	79	39.7	2	4	112	0.00	29.891 
05:40	46.0	46.0	46.0	79	39.9	2	4	90	0.00	29.891 
05:45	46.0	46.0	46.0	79	39.9	2	4	112	0.00	29.891 
05:50	46.1	46.1	46.1	78	39.6	3	6	112	0.00	29.891 
05:55	46.0	46.0	46.0	78	39.5	2	3	90	0.00	29.891 
06:00	46.0	46.0	46.0	79	39.9	1	6	112	0.00	29.893 
06:05	45.8	45.8	45.8	79	39.7	1	3	112	0.00	29.893 
06:10	45.7	45.7	45.7	79	39.6	0	2	90	0.00	29.893 
06:15	45.5	45.5	45.5	79	39.4	0	1	90	0.00	29.910 
06:20	45.2	45.2	45.2	80	39.4	0	1	90	0.00	29.910 
06:25	45.1	45.1	45.1	80	39.3	0	0	---	0.00	29.910 
06:30	44.9	44.9	44.9	80	39.1	0	0	---	0.00	29.927 
06:35	44.6	44.6	44.6	81	39.1	0	0	---	0.00	29.927 
06:40	44.5	44.5	44.5	81	39.0	0	0	---	0.00	29.927 
06:45	44.2	44.2	44.2	82	39.1	0	0	---	0.00	29.931 
06:50	44.1	44.1	44.1	82	39.0	0	0	---	0.00	29.931 
06:55	43.9	43.9	43.9	83	39.1	0	1	90	0.00	29.931 
07:00	43.9	43.9	43.9	83	39.1	0	1	90	0.00	29.930 
07:05	44.2	44.2	44.2	83	39.4	0	2	90	0.00	29.930 
07:10	44.5	44.5	44.5	82	39.4	0	2	90	0.00	29.930 
07:15	44.9	44.9	44.9	81	39.4	1	4	45	0.00	29.930 
07:20	45.2	45.2	45.2	80	39.4	1	3	68	0.00	29.930 
07:25	45.4	45.4	45.4	80	39.6	1	3	45	0.00	29.930 
07:30	45.5	45.5	45.5	80	39.7	1	3	45	0.00	29.929 
07:35	45.8	45.8	45.8	79	39.7	2	6	112	0.00	29.929 
07:40	45.8	45.8	45.8	79	39.7	3	6	90	0.00	29.929 
07:45	45.8	45.8	45.8	79	39.7	2	5	112	0.00	29.924 
07:50	45.8	45.8	45.8	79	39.7	1	4	90	0.00	29.924 
07:55	46.0	46.0	46.0	79	39.9	1	4	22	0.00	29.924 
08:00	46.1	46.1	46.1	79	40.0	2	4	112	0.00	29.925 
08:05	46.2	46.2	46.2	79	40.1	2	4	112	0.00	29.925 
08:10	46.5	46.5	46.5	79	40.3	2	5	112	0.00	29.925 
08:15	46.7	46.7	46.7	78	40.2	2	5	90	0.00	29.929 
08:20	47.0	47.0	47.0	79	40.8	3	5	90	0.00	29.929 
08:25	47.1	47.1	47.1	78	40.6	2	5	112	0.00	29.929 
08:30	47.4	47.4	47.4	78	40.9	2	4	112	0.00	29.923 
08:35	47.7	47.7	47.7	77	40.8	3	7	90	0.00	29.923 
08:40	48.0	48.0	48.0	77	41.1	3	9	112	0.00	29.923 
08:45	48.2	48.2	48.2	76	41.0	3	7	112	0.00	29.925 
08:50	48.5	48.5	48.5	76	41.3	3	7	112	0.00	29.925 
08:55	48.8	48.8	48.8	76	41.6	3	7	112	0.00	29.925 
09:00	48.9	48.9	48.9	75	41.3	2	6	112	0.00	29.932 
09:05	49.5	49.5	49.5	74	41.6	2	6	112	0.00	29.932 
09:10	50.1	50.1	50.1	73	41.8	3	7	112	0.00	29.932 
09:15	50.8	50.8	50.8	72	42.1	3	6	112	0.00	29.931 
09:20	51.4	51.4	51.4	71	42.3	3	7	112	0.00	29.931 
09:25	52.0	52.0	52.0	72	43.3	3	6	112	0.00	29.931 
09:30	52.5	52.5	52.5	69	42.6	4	10	112	0.00	29.922 
09:35	51.7	51.7	51.7	71	42.6	5	9	112	0.00	29.922 
09:40	52.2	52.2	52.2	71	43.1	4	10	112	0.00	29.922 
09:45	52.6	52.6	52.6	70	43.1	4	11	112	0.00	29.910 
09:50	52.6	52.6	52.6	71	43.5	3	7	112	0.00	29.910 
09:55	53.3	53.3	53.3	69	43.4	4	10	112	0.00	29.910 
10:00	53.6	53.6	53.6	69	43.7	4	11	112	0.00	29.900 
10:05	54.1	54.1	54.1	67	43.4	4	9	90	0.00	29.900 
10:10	54.8	54.8	54.8	68	44.4	4	11	90	0.00	29.900 
10:15	55.1	55.1	55.1	65	43.5	5	12	112	0.00	29.897 
10:20	55.4	55.4	55.4	67	44.6	4	6	112	0.00	29.897 
10:25	56.2	56.2	56.2	64	44.2	4	7	112	0.00	29.897 
10:30	56.5	56.5	56.5	64	44.5	4	9	90	0.00	29.897 
10:35	57.0	57.0	57.0	62	44.1	4	9	112	0.00	29.897 
10:40	58.0	58.0	58.0	61	44.6	4	7	90	0.00	29.897 
10:45	59.3	59.3	59.3	60	45.4	4	11	112	0.00	29.898 
10:50	60.2	60.2	60.2	58	45.4	4	7	90	0.00	29.898 
10:55	60.9	60.9	60.9	58	46.0	4	7	112	0.00	29.898 
11:00	61.0	61.0	61.0	57	45.7	6	12	112	0.00	29.897 
11:05	61.2	61.2	61.2	57	45.8	5	8	112	0.00	29.897 
11:10	61.6	61.6	61.6	54	44.8	4	10	112	0.00	29.897 
11:15	61.8	61.8	61.8	54	45.0	6	9	90	0.00	29.905 
11:20	62.0	62.0	62.0	55	45.6	5	10	112	0.00	29.905 
11:25	62.0	62.0	62.0	55	45.6	5	11	112	0.00	29.905 
11:30	62.3	62.3	62.3	55	45.9	5	11	112	0.00	29.912 
11:35	63.1	63.1	63.1	54	46.2	3	7	112	0.00	29.912 
11:40	64.0	64.0	64.0	54	47.0	3	7	112	0.00	29.912 
11:45	64.0	64.0	64.0	51	45.5	4	7	112	0.00	29.919 
11:50	64.0	64.0	64.0	52	46.0	5	10	112	0.00	29.919 
11:55	64.5	64.5	64.5	55	48.0	5	10	112	0.00	29.919 
12:00	64.7	64.7	64.7	54	47.7	4	9	90	0.00	29.917 
12:05	65.0	65.0	65.0	54	47.9	4	6	112	0.00	29.917 
12:10	64.8	64.8	64.8	51	46.2	5	8	112	0.00	29.917 
12:15	64.2	64.2	64.2	52	46.2	5	12	112	0.00	29.913 
12:20	64.8	64.8	64.8	51	46.2	5	9	112	0.00	29.913 
12:25	65.8	65.8	65.8	53	48.2	5	10	112	0.00	29.913 
12:30	66.6	66.6	66.6	53	48.9	4	10	90	0.00	29.907 
12:35	66.6	66.6	66.6	47	45.7	6	12	90	0.00	29.907 
12:40	66.4	66.4	66.4	46	45.0	5	10	112	0.00	29.907 
12:45	66.4	66.4	66.4	49	46.7	6	13	112	0.00	29.912 
12:50	66.8	66.8	66.8	49	47.0	6	14	112	0.00	29.912 
12:55	66.9	66.9	66.9	45	44.9	6	12	112	0.00	29.912 
13:00	67.4	67.4	67.4	45	45.3	5	10	112	0.00	29.909 
13:05	67.4	67.4	67.4	46	45.9	5	11	90	0.00	29.909 
13:10	67.8	67.8	67.8	43	44.5	5	10	112	0.00	29.909 
13:15	67.8	67.8	67.8	43	44.5	4	9	112	0.00	29.916 
13:20	67.8	67.8	67.8	41	43.2	4	8	112	0.00	29.916 
13:25	67.8	67.8	67.8	43	44.5	7	12	112	0.00	29.916 
13:30	67.8	67.8	67.8	40	42.6	5	10	112	0.00	29.920 
13:35	68.1	68.1	68.1	41	43.5	4	11	112	0.00	29.920 
13:40	68.1	68.1	68.1	42	44.1	4	9	90	0.00	29.920 
13:45	68.4	68.4	68.4	41	43.8	4	11	90	0.00	29.921 
13:50	68.8	68.8	68.8	40	43.5	3	6	90	0.00	29.921 
13:55	68.9	68.9	68.9	41	44.2	4	9	90	0.00	29.921 
14:00	69.4	69.4	69.4	42	45.3	6	11	112	0.00	29.916 
14:05	69.9	69.9	69.9	39	43.8	5	12	90	0.00	29.916 
14:10	69.8	69.8	69.8	41	45.0	6	12	112	0.00	29.916 
14:15	70.1	70.1	70.1	41	45.3	5	10	112	0.00	29.912 
14:20	70.4	70.4	70.4	39	44.2	5	14	112	0.00	29.912 
14:25	70.6	70.6	70.6	37	43.1	4	11	112	0.00	29.912 
14:30	70.8	70.8	70.8	38	43.9	4	10	112	0.00	29.910 
14:35	70.8	70.8	70.8	35	41.8	6	12	112	0.00	29.910 
14:40	70.4	70.4	70.4	36	42.2	6	10	112	0.00	29.910 
14:45	70.8	70.8	70.8	35	41.8	4	12	112	0.00	29.911 
14:50	70.8	70.8	70.8	38	43.9	5	12	112	0.00	29.911 
14:55	70.6	70.6	70.6	37	43.1	5	10	90	0.00	29.911 
15:00	70.4	70.4	70.4	37	42.9	4	9	112	0.00	29.911 
15:05	70.6	70.6	70.6	38	43.7	4	9	112	0.00	29.911 
15:10	70.9	70.9	70.9	33	40.3	5	9	112	0.00	29.911 
15:15	71.6	71.6	71.6	37	43.9	4	10	112	0.00	29.903 
15:20	72.3	72.3	72.3	35	43.1	4	9	112	0.00	29.903 
15:25	73.0	73.0	73.0	34	43.0	2	6	90	0.00	29.903 
15:30	73.3	73.3	73.3	33	42.4	3	10	112	0.00	29.904 
15:35	73.2	73.2	73.2	31	40.7	4	10	112	0.00	29.904 
15:40	72.8	72.8	72.8	34	42.8	4	9	112	0.00	29.904 
15:45	73.2	73.2	73.2	33	42.4	3	7	112	0.00	29.901 
15:50	73.5	73.5	73.5	33	42.6	2	5	90	0.00	29.901 
15:55	73.3	73.3	73.3	35	44.0	4	11	112	0.00	29.901 
16:00	73.2	73.2	73.2	31	40.7	4	9	112	0.00	29.901 
16:05	73.0	73.0	73.0	34	43.0	3	5	90	0.00	29.901 
16:10	72.8	72.8	72.8	31	40.4	4	11	112	0.00	29.901 
16:15	73.0	73.0	73.0	30	39.7	4	9	90	0.00	29.892 
16:20	73.0	73.0	73.0	29	38.9	3	8	112	0.00	29.892 
16:25	73.2	73.2	73.2	31	40.7	2	5	112	0.00	29.892 
16:30	73.2	73.2	73.2	29	39.0	4	7	90	0.00	29.888 
16:35	73.2	73.2	73.2	30	39.9	4	7	90	0.00	29.888 
16:40	73.2	73.2	73.2	30	39.9	3	11	112	0.00	29.888 
16:45	72.7	72.7	72.7	30	39.5	5	11	112	0.00	29.887 
16:50	73.0	73.0	73.0	30	39.7	3	7	90	0.00	29.887 
16:55	73.0	73.0	73.0	32	41.4	5	10	112	0.00	29.887 
17:00	73.2	73.2	73.2	33	42.4	3	9	112	0.00	29.887 
17:05	73.0	73.0	73.0	28	38.0	4	6	112	0.00	29.887 
17:10	72.8	72.8	72.8	28	37.8	4	9	90	0.00	29.887 
17:15	73.0	73.0	73.0	30	39.7	3	5	112	0.00	29.887 
17:20	73.0	73.0	73.0	30	39.7	5	10	90	0.00	29.887 
17:25	72.8	72.8	72.8	27	36.9	4	7	112	0.00	29.887 
17:30	72.7	72.7	72.7	28	37.7	5	11	112	0.00	29.889 
17:35	72.7	72.7	72.7	28	37.7	3	8	112	0.00	29.889 
17:40	72.7	72.7	72.7	27	36.8	4	8	112	0.00	29.889 
17:45	72.7	72.7	72.7	26	35.8	4	7	90	0.00	29.891 
17:50	72.7	72.7	72.7	28	37.7	3	7	112	0.00	29.891 
17:55	72.7	72.7	72.7	26	35.8	4	10	112	0.00	29.891 
18:00	72.5	72.5	72.5	27	36.6	4	7	112	0.00	29.889 
18:05	72.5	72.5	72.5	26	35.7	4	7	90	0.00	29.889 
18:10	72.3	72.3	72.3	25	34.5	3	6	112	0.00	29.889 
18:15	72.3	72.3	72.3	27	36.4	3	6	112	0.00	29.891 
18:20	72.3	72.3	72.3	27	36.4	2	6	112	0.00	29.891 
18:25	72.3	72.3	72.3	25	34.5	4	10	90	0.00	29.891 
18:30	72.1	72.1	72.1	26	35.3	3	6	112	0.00	29.890 
18:35	71.8	71.8	71.8	24	33.1	4	9	112	0.00	29.890 
18:40	71.8	71.8	71.8	26	35.1	3	6	90	0.00	29.890 
18:45	71.6	71.6	71.6	25	33.9	3	6	112	0.00	29.890 
18:50	71.6	71.6	71.6	25	33.9	3	6	112	0.00	29.890 
18:55	71.6	71.6	71.6	26	34.9	2	4	112	0.00	29.890 
19:00	71.5	71.5	71.5	24	32.8	2	6	112	0.00	29.889 
19:05	71.3	71.3	71.3	24	32.6	3	5	112	0.00	29.889 
19:10	71.1	71.1	71.1	25	33.5	2	5	112	0.00	29.889 
19:15	70.9	70.9	70.9	25	33.3	2	4	90	0.00	29.890 
19:20	70.8	70.8	70.8	25	33.2	2	4	112	0.00	29.890 
19:25	70.6	70.6	70.6	25	33.1	1	4	90	0.00	29.890 
19:30	70.4	70.4	70.4	25	32.9	2	4	90	0.00	29.889 
19:35	70.1	70.1	70.1	28	35.5	3	9	90	0.00	29.889 
19:40	69.3	69.3	69.3	29	35.7	5	12	90	0.00	29.889 
19:45	68.6	68.6	68.6	31	36.8	4	10	112	0.00	29.892 
19:50	67.9	67.9	67.9	30	35.3	4	10	112	0.00	29.892 
19:55	67.4	67.4	67.4	30	34.9	4	9	90	0.00	29.892 
20:00	67.1	67.1	67.1	32	36.3	3	7	90	0.00	29.897 
20:05	66.8	66.8	66.8	32	36.0	4	10	112	0.00	29.897 
20:10	66.3	66.3	66.3	33	36.3	4	8	112	0.00	29.897 
20:15	65.8	65.8	65.8	34	36.6	2	6	90	0.00	29.901 
20:20	65.3	65.3	65.3	36	37.7	3	5	90	0.00	29.901 
20:25	64.7	64.7	64.7	37	37.8	1	3	90	0.00	29.901 
20:30	64.0	64.0	64.0	38	37.9	2	4	90	0.00	29.906 
20:35	63.4	63.4	63.4	38	37.3	2	6	90	0.00	29.906 
20:40	62.9	62.9	62.9	39	37.6	1	3	90	0.00	29.906 
20:45	62.4	62.4	62.4	39	37.1	1	4	90	0.00	29.909 
20:50	62.1	62.1	62.1	39	36.8	2	5	90	0.00	29.909 
20:55	61.8	61.8	61.8	39	36.6	1	3	90	0.00	29.909 
21:00	61.5	61.5	61.5	39	36.3	2	3	90	0.00	29.920 
21:05	61.2	61.2	61.2	40	36.7	1	2	90	0.00	29.920 
21:10	60.7	60.7	60.7	41	36.9	1	2	90	0.00	29.920 
21:15	60.2	60.2	60.2	43	37.6	0	1	90	0.00	29.923 
21:20	59.6	59.6	59.6	43	37.1	0	1	90	0.00	29.923 
21:25	59.0	59.0	59.0	44	37.1	0	2	90	0.00	29.923 
21:30	58.6	58.6	58.6	45	37.3	1	2	90	0.00	29.930 
21:35	58.3	58.3	58.3	46	37.6	0	2	90	0.00	29.930 
21:40	58.0	58.0	58.0	46	37.3	0	1	90	0.00	29.930 
21:45	57.5	57.5	57.5	47	37.4	0	3	90	0.00	29.927 
21:50	57.3	57.3	57.3	46	36.7	1	3	90	0.00	29.927 
21:55	57.6	57.6	57.6	46	37.0	1	3	90	0.00	29.927 
22:00	57.6	57.6	57.6	46	37.0	1	3	90	0.00	29.934 
22:05	57.6	57.6	57.6	47	37.5	2	4	90	0.00	29.934 
22:10	57.5	57.5	57.5	47	37.4	1	4	90	0.00	29.934 
22:15	57.3	57.3	57.3	48	37.8	1	3	90	0.00	29.931 
22:20	57.2	57.2	57.2	48	37.7	1	3	90	0.00	29.931 
22:25	57.0	57.0	57.0	48	37.5	1	4	90	0.00	29.931 
22:30	56.9	56.9	56.9	48	37.4	2	4	90	0.00	29.932 
22:35	56.7	56.7	56.7	48	37.2	1	5	90	0.00	29.932 
22:40	56.7	56.7	56.7	48	37.2	2	4	90	0.00	29.932 
22:45	56.6	56.6	56.6	48	37.1	2	4	90	0.00	29.934 
22:50	56.5	56.5	56.5	49	37.6	2	3	90	0.00	29.934 
22:55	56.3	56.3	56.3	49	37.4	2	5	90	0.00	29.934 
23:00	56.2	56.2	56.2	50	37.8	2	5	90	0.00	29.934 
23:05	55.9	55.9	55.9	50	37.5	1	3	90	0.00	29.934 
23:10	55.6	55.6	55.6	51	37.8	1	4	90	0.00	29.934 
23:15	55.4	55.4	55.4	50	37.1	2	4	90	0.00	29.924 
23:20	55.3	55.3	55.3	51	37.5	2	3	90	0.00	29.924 
23:25	55.1	55.1	55.1	51	37.3	2	4	90	0.00	29.924 
23:30	55.0	55.0	55.0	52	37.7	2	4	90	0.00	29.922 
23:35	54.8	54.8	54.8	52	37.5	2	4	90	0.00	29.922 
23:40	54.7	54.7	54.7	52	37.4	2	3	90	0.00	29.922 
23:45	54.4	54.4	54.4	53	37.6	1	2	90	0.00	29.918 
23:50	54.2	54.2	54.2	53	37.4	1	3	90	0.00	29.918 
23:55	53.9	53.9	53.9	54	37.6	0	1	90	0.00	29.918 

CoCoRaHS
IN-AL-39
A2 Web Hosting
Creative Commons License
GoDaddy
Look for:

loaded 2017-12-13 19:42:09 • last modified 2010-11-18 10:43:29
Privacy PolicyDisclaimer
• wx.awcolley.com is powered by PmWiki v.2002016 •
• all content (unless otherwise noted) © 2017 A W Colley